Terminal Aerodrome Forecast
Issued by NWS

Home | Current Version | Previous Version | Text Only | Print | Product List | Glossary On
Versions: 1 2 3 4 5 6 7 8 9 10 11 12 13 14 15 16 17 18 19 20 21 22
485
FTUS43 KICT 210203 AAB
TAFHUT
TAF AMD
KHUT 210203Z 2102/2124 14005KT 6SM BR SCT025 SCT080
     FM210600 25007KT P6SM SCT025
     FM211000 24005KT 5SM BR SCT100
     FM211400 17005KT P6SM OVC060=

USA.gov is the U.S. government's official web portal to all federal, state and local government web resources and services.